createdAt,value
2022-10-01T00:02:26.537Z,70.39
2022-10-01T00:04:57.670Z,70.49
2022-10-01T00:07:28.972Z,70.71
2022-10-01T00:09:59.711Z,70.80
2022-10-01T00:12:30.349Z,70.85
2022-10-01T00:15:04.358Z,70.96
2022-10-01T00:17:37.267Z,71.04
2022-10-01T00:20:14.587Z,71.17
2022-10-01T00:22:46.181Z,71.23
2022-10-01T00:25:16.948Z,71.25
2022-10-01T00:27:49.263Z,71.15
2022-10-01T00:30:21.683Z,71.27
2022-10-01T00:32:56.155Z,71.34
2022-10-01T00:35:27.195Z,71.18
2022-10-01T00:37:57.987Z,71.22
2022-10-01T00:40:28.759Z,71.25
2022-10-01T00:42:59.637Z,71.19
2022-10-01T00:45:31.092Z,71.06
2022-10-01T00:48:02.387Z,71.32
2022-10-01T00:50:36.041Z,71.11
2022-10-01T00:53:12.105Z,71.12
2022-10-01T00:55:46.113Z,70.86
2022-10-01T00:58:18.347Z,70.86
2022-10-01T01:00:50.267Z,70.68
2022-10-01T01:03:21.282Z,70.64
2022-10-01T01:05:51.982Z,70.85
2022-10-01T01:08:22.987Z,71.13
2022-10-01T01:11:05.077Z,71.37
2022-10-01T01:13:45.466Z,71.00
2022-10-01T01:16:21.759Z,70.85
2022-10-01T01:19:01.671Z,71.02
2022-10-01T01:21:33.820Z,71.14
2022-10-01T01:24:30.949Z,71.18
2022-10-01T01:27:28.333Z,71.36
2022-10-01T01:30:04.220Z,71.47
2022-10-01T01:32:46.461Z,71.82
2022-10-01T01:35:24.114Z,72.20
2022-10-01T01:38:01.807Z,72.33
2022-10-01T01:40:36.828Z,72.34
2022-10-01T01:43:11.432Z,72.25
2022-10-01T01:45:43.353Z,71.81
2022-10-01T01:48:15.003Z,71.69
2022-10-01T01:50:52.955Z,71.66
2022-10-01T01:53:24.639Z,71.63
2022-10-01T01:55:57.240Z,71.43
2022-10-01T01:58:28.269Z,71.75
2022-10-01T02:00:59.059Z,72.14
2022-10-01T02:03:34.961Z,71.90
2022-10-01T02:06:18.034Z,71.82
2022-10-01T02:08:58.273Z,71.66
2022-10-01T02:11:38.211Z,71.44
2022-10-01T02:14:22.018Z,72.08
2022-10-01T02:17:02.076Z,71.64
2022-10-01T02:19:37.289Z,71.70
2022-10-01T02:22:12.884Z,72.15
2022-10-01T02:24:49.202Z,72.51
2022-10-01T02:27:24.635Z,72.27
2022-10-01T02:29:58.546Z,72.08
2022-10-01T02:32:32.183Z,71.99
2022-10-01T02:35:05.471Z,72.12
2022-10-01T02:37:38.571Z,72.13
2022-10-01T02:40:16.810Z,72.17
2022-10-01T02:42:51.367Z,71.96
2022-10-01T02:45:25.288Z,71.80
2022-10-01T02:47:58.871Z,71.77
2022-10-01T02:50:35.617Z,72.09
2022-10-01T02:53:10.860Z,72.28
2022-10-01T02:55:44.195Z,72.20
2022-10-01T02:58:15.141Z,72.26
2022-10-01T03:00:45.883Z,72.32
2022-10-01T03:03:16.579Z,72.09
2022-10-01T03:05:47.480Z,72.28
2022-10-01T03:08:19.471Z,72.48
2022-10-01T03:10:50.453Z,72.99
2022-10-01T03:13:23.446Z,72.24
2022-10-01T03:15:54.213Z,73.07
2022-10-01T03:18:24.918Z,72.99
2022-10-01T03:20:55.624Z,72.97
2022-10-01T03:23:26.262Z,73.07
2022-10-01T03:25:56.919Z,72.60
2022-10-01T03:28:27.646Z,73.14
2022-10-01T03:31:09.231Z,73.13
2022-10-01T03:33:41.171Z,72.84
2022-10-01T03:36:11.933Z,72.71
2022-10-01T03:38:42.671Z,72.58
2022-10-01T03:41:13.326Z,72.71
2022-10-01T03:43:43.924Z,72.73
2022-10-01T03:46:14.757Z,72.69
2022-10-01T03:48:45.511Z,72.51
2022-10-01T03:51:19.779Z,72.80
2022-10-01T03:53:51.017Z,72.87
2022-10-01T03:56:21.785Z,73.14
2022-10-01T03:58:52.877Z,73.53
2022-10-01T04:01:24.233Z,73.54
2022-10-01T04:03:55.236Z,73.59
2022-10-01T04:06:26.026Z,73.87
2022-10-01T04:08:56.654Z,73.53
2022-10-01T04:11:27.937Z,73.96
2022-10-01T04:13:58.913Z,74.17
2022-10-01T04:16:29.968Z,74.33
2022-10-01T04:19:00.748Z,74.39
2022-10-01T04:21:31.842Z,74.16
2022-10-01T04:24:05.187Z,74.10
2022-10-01T04:26:35.813Z,73.90
2022-10-01T04:29:06.450Z,73.86
2022-10-01T04:31:37.375Z,73.74
2022-10-01T04:34:08.771Z,73.83
2022-10-01T04:36:39.531Z,73.85
2022-10-01T04:39:10.134Z,73.87
2022-10-01T04:41:41.136Z,74.15
2022-10-01T04:44:11.887Z,74.19
2022-10-01T04:46:42.639Z,74.19
2022-10-01T04:49:13.401Z,74.22
2022-10-01T04:51:44.194Z,74.27
2022-10-01T04:54:15.037Z,74.55
2022-10-01T04:56:45.634Z,74.11
2022-10-01T04:59:16.276Z,74.15
2022-10-01T05:01:47.164Z,73.98
2022-10-01T05:04:18.471Z,74.02
2022-10-01T05:06:49.198Z,74.01
2022-10-01T05:09:19.831Z,73.75
2022-10-01T05:11:52.098Z,74.15
2022-10-01T05:14:22.806Z,74.30
2022-10-01T05:16:53.461Z,74.05
2022-10-01T05:19:27.869Z,74.07
2022-10-01T05:21:58.811Z,74.47
2022-10-01T05:24:29.785Z,74.44
2022-10-01T05:27:00.527Z,74.59
2022-10-01T05:29:31.882Z,74.27
2022-10-01T05:32:05.805Z,74.56
2022-10-01T05:34:36.949Z,74.80
2022-10-01T05:37:08.153Z,74.99
2022-10-01T05:39:39.044Z,74.60
2022-10-01T05:42:09.731Z,74.76
2022-10-01T05:44:46.123Z,75.04
2022-10-01T05:47:17.760Z,74.91
2022-10-01T05:49:48.411Z,75.06
2022-10-01T05:52:19.048Z,75.13
2022-10-01T05:54:50.062Z,74.80
2022-10-01T05:57:20.783Z,74.93
2022-10-01T05:59:51.395Z,74.96
2022-10-01T06:02:22.031Z,74.72
2022-10-01T06:04:52.897Z,74.60
2022-10-01T06:07:23.701Z,74.51
2022-10-01T06:09:54.371Z,74.40
2022-10-01T06:12:24.989Z,74.19
2022-10-01T06:14:55.612Z,74.23
2022-10-01T06:17:26.206Z,74.43
2022-10-01T06:19:57.394Z,73.89
2022-10-01T06:22:28.278Z,73.91
2022-10-01T06:24:59.507Z,73.83
2022-10-01T06:27:30.200Z,74.03
2022-10-01T06:30:00.796Z,74.04
2022-10-01T06:32:34.783Z,74.04
2022-10-01T06:35:07.638Z,73.97
2022-10-01T06:37:40.905Z,74.08
2022-10-01T06:40:12.930Z,73.92
2022-10-01T06:42:52.730Z,73.72
2022-10-01T06:45:27.389Z,73.66
2022-10-01T06:47:59.727Z,73.82
2022-10-01T06:50:31.021Z,73.65
2022-10-01T06:53:02.814Z,73.50
2022-10-01T06:55:35.835Z,73.35
2022-10-01T06:58:08.950Z,73.20
2022-10-01T07:00:40.034Z,73.19
2022-10-01T07:03:14.003Z,72.74
2022-10-01T07:05:44.861Z,72.44
2022-10-01T07:08:15.900Z,72.48
2022-10-01T07:10:46.653Z,72.45
2022-10-01T07:13:20.310Z,72.45
2022-10-01T07:15:50.968Z,72.35
2022-10-01T07:18:21.696Z,72.33
2022-10-01T07:20:52.398Z,72.35
2022-10-01T07:23:24.371Z,72.26
2022-10-01T07:25:55.297Z,72.09
2022-10-01T07:28:26.991Z,72.14
2022-10-01T07:31:05.106Z,72.34
2022-10-01T07:33:35.960Z,72.54
2022-10-01T07:36:08.555Z,72.46
2022-10-01T07:38:37.794Z,72.50
2022-10-01T07:41:08.510Z,72.52
2022-10-01T07:43:41.503Z,72.46
2022-10-01T07:46:12.388Z,72.44
2022-10-01T07:48:46.485Z,72.33
2022-10-01T07:51:17.833Z,72.16
2022-10-01T07:53:48.517Z,71.93
2022-10-01T07:56:19.119Z,71.73
2022-10-01T07:58:50.695Z,71.71
2022-10-01T08:01:21.423Z,71.55
2022-10-01T08:03:53.183Z,71.40
2022-10-01T08:06:25.833Z,71.37
2022-10-01T08:08:56.667Z,71.19
2022-10-01T08:11:27.892Z,71.18
2022-10-01T08:13:58.629Z,70.98
2022-10-01T08:16:30.261Z,70.81
2022-10-01T08:19:00.923Z,70.57
2022-10-01T08:21:32.283Z,70.36
2022-10-01T08:24:04.044Z,70.15
2022-10-01T08:26:35.248Z,69.97
2022-10-01T08:29:05.901Z,69.87
2022-10-01T08:31:37.106Z,69.74
2022-10-01T08:34:08.187Z,69.78
2022-10-01T08:36:38.833Z,69.62
2022-10-01T08:39:09.559Z,69.56
2022-10-01T08:41:49.492Z,69.52
2022-10-01T08:44:22.744Z,69.13
2022-10-01T08:46:56.258Z,69.09
2022-10-01T08:49:31.774Z,69.06
2022-10-01T08:52:09.686Z,68.90
2022-10-01T08:54:46.932Z,68.82
2022-10-01T08:57:22.823Z,68.58
2022-10-01T08:59:57.426Z,68.56
2022-10-01T09:02:30.104Z,68.19
2022-10-01T09:05:03.907Z,67.95
2022-10-01T09:07:59.099Z,67.69
2022-10-01T09:10:42.841Z,67.13
2022-10-01T09:13:45.798Z,67.36
2022-10-01T09:16:26.542Z,66.90
2022-10-01T09:19:13.569Z,66.54
2022-10-01T09:21:56.946Z,66.06
2022-10-01T09:24:40.664Z,65.71
2022-10-01T09:27:16.833Z,65.72
2022-10-01T09:29:53.434Z,65.74
2022-10-01T09:32:28.586Z,66.15
2022-10-01T09:35:05.916Z,65.94
2022-10-01T09:37:44.467Z,65.89
2022-10-01T09:40:16.235Z,65.90
2022-10-01T09:42:48.590Z,65.91
2022-10-01T09:45:20.551Z,66.08
2022-10-01T09:47:54.246Z,66.06
2022-10-01T09:50:32.215Z,65.94
2022-10-01T09:53:03.713Z,65.90
2022-10-01T09:55:40.352Z,65.60
2022-10-01T09:58:14.502Z,65.88
2022-10-01T10:00:48.374Z,66.13
2022-10-01T10:03:30.014Z,66.11
2022-10-01T10:06:02.716Z,65.51
2022-10-01T10:08:37.711Z,65.42
2022-10-01T10:11:11.954Z,65.00
2022-10-01T10:13:50.399Z,64.82
2022-10-01T10:16:26.365Z,64.33
2022-10-01T10:19:02.216Z,63.87
2022-10-01T10:21:35.965Z,63.63
2022-10-01T10:24:22.294Z,63.03
2022-10-01T10:26:58.057Z,63.35
2022-10-01T10:29:31.534Z,63.33
2022-10-01T10:32:08.423Z,62.97
2022-10-01T10:34:43.870Z,63.11
2022-10-01T10:37:18.231Z,63.26
2022-10-01T10:39:52.474Z,63.14
2022-10-01T10:42:24.288Z,63.14
2022-10-01T10:44:59.800Z,63.46
2022-10-01T10:47:32.211Z,63.34
2022-10-01T10:50:07.058Z,63.93
2022-10-01T10:52:42.634Z,64.35
2022-10-01T10:55:26.932Z,64.54
2022-10-01T10:58:08.723Z,64.91
2022-10-01T11:00:48.311Z,65.24
2022-10-01T11:03:22.534Z,65.77
2022-10-01T11:05:56.323Z,66.01
2022-10-01T11:08:29.023Z,66.01
2022-10-01T11:11:14.105Z,66.64
2022-10-01T11:14:08.430Z,67.31
2022-10-01T11:16:54.480Z,67.65
2022-10-01T11:19:41.470Z,67.95
2022-10-01T11:22:36.616Z,68.38
2022-10-01T11:25:25.450Z,68.47
2022-10-01T11:28:07.987Z,68.53
2022-10-01T11:30:50.151Z,68.87
2022-10-01T11:33:31.864Z,69.35
2022-10-01T11:36:06.054Z,69.36
2022-10-01T11:38:52.210Z,69.48
2022-10-01T11:41:30.062Z,69.26
2022-10-01T11:44:06.187Z,69.77
2022-10-01T11:46:45.673Z,69.96
2022-10-01T11:49:38.255Z,70.29
2022-10-01T11:52:18.749Z,70.77
2022-10-01T11:55:19.962Z,71.16
2022-10-01T11:58:16.995Z,71.14
2022-10-01T12:01:00.303Z,70.70
2022-10-01T12:03:43.239Z,71.67
2022-10-01T12:06:15.163Z,71.82
2022-10-01T12:08:53.911Z,71.68
2022-10-01T12:11:31.027Z,71.51
2022-10-01T12:14:10.276Z,71.80
2022-10-01T12:16:47.273Z,71.90
2022-10-01T12:19:24.994Z,71.83
2022-10-01T12:22:00.136Z,71.65
2022-10-01T12:24:36.374Z,71.78
2022-10-01T12:27:27.930Z,71.84
2022-10-01T12:30:04.256Z,72.17
2022-10-01T12:32:48.954Z,72.59
2022-10-01T12:35:35.774Z,72.70
2022-10-01T12:38:18.623Z,72.47
2022-10-01T12:40:58.490Z,72.40
2022-10-01T12:43:46.116Z,72.81
2022-10-01T12:46:27.469Z,72.78
2022-10-01T12:49:08.784Z,73.09
2022-10-01T12:51:45.151Z,73.00
2022-10-01T12:54:47.658Z,73.34
2022-10-01T12:57:33.174Z,73.42
2022-10-01T13:00:12.511Z,73.24
2022-10-01T13:03:27.938Z,73.04
2022-10-01T13:06:15.912Z,73.19
2022-10-01T13:08:58.947Z,73.29
2022-10-01T13:11:44.951Z,73.38
2022-10-01T13:14:18.906Z,73.28
2022-10-01T13:16:58.376Z,73.21
2022-10-01T13:19:36.565Z,73.32
2022-10-01T13:22:16.498Z,73.33
2022-10-01T13:24:53.785Z,73.36
2022-10-01T13:27:31.306Z,73.37
2022-10-01T13:30:04.256Z,73.48
2022-10-01T13:32:38.494Z,73.49
2022-10-01T13:35:30.418Z,73.56
2022-10-01T13:38:14.822Z,73.64
2022-10-01T13:40:46.254Z,73.65
2022-10-01T13:43:21.612Z,73.75
2022-10-01T13:45:54.725Z,73.79
2022-10-01T13:48:31.681Z,73.98
2022-10-01T13:51:06.786Z,74.17
2022-10-01T13:53:47.361Z,74.25
2022-10-01T13:56:31.018Z,74.19
2022-10-01T13:59:01.953Z,74.28
2022-10-01T14:01:40.987Z,74.30
2022-10-01T14:04:22.617Z,74.21
2022-10-01T14:06:57.905Z,74.33
2022-10-01T14:09:32.389Z,74.40
2022-10-01T14:12:25.182Z,74.35
2022-10-01T14:15:16.957Z,74.45
2022-10-01T14:17:51.207Z,74.90
2022-10-01T14:20:25.381Z,75.01
2022-10-01T14:23:20.022Z,74.82
2022-10-01T14:26:08.451Z,75.05
2022-10-01T14:28:51.673Z,75.47
2022-10-01T14:31:30.146Z,75.28
2022-10-01T14:34:21.808Z,75.76
2022-10-01T14:36:55.136Z,75.79
2022-10-01T14:39:27.470Z,75.78
2022-10-01T14:41:59.315Z,75.98
2022-10-01T14:44:32.755Z,75.89
2022-10-01T14:47:13.387Z,76.38
2022-10-01T14:49:44.289Z,76.45
2022-10-01T14:52:22.627Z,76.18
2022-10-01T14:55:00.123Z,76.08
2022-10-01T14:57:35.099Z,75.93
2022-10-01T15:00:10.718Z,75.74
2022-10-01T15:02:49.991Z,75.49
2022-10-01T15:05:27.758Z,75.29
2022-10-01T15:07:59.735Z,75.23
2022-10-01T15:10:30.910Z,75.34
2022-10-01T15:13:01.759Z,75.37
2022-10-01T15:15:40.623Z,75.35
2022-10-01T15:18:15.570Z,75.31
2022-10-01T15:20:56.544Z,75.69
2022-10-01T15:23:29.173Z,75.31
2022-10-01T15:26:01.943Z,75.00
2022-10-01T15:28:34.365Z,74.70
2022-10-01T15:31:07.807Z,74.86
2022-10-01T15:33:40.956Z,74.61
2022-10-01T15:36:17.491Z,74.51
2022-10-01T15:38:51.051Z,74.07
2022-10-01T15:41:32.085Z,73.74
2022-10-01T15:44:06.442Z,73.35
2022-10-01T15:46:37.455Z,73.24
2022-10-01T15:49:19.655Z,73.36
2022-10-01T15:52:09.284Z,73.24
2022-10-01T15:54:41.824Z,73.00
2022-10-01T15:57:15.942Z,72.97
2022-10-01T15:59:48.017Z,72.72
2022-10-01T16:02:22.043Z,72.44
2022-10-01T16:04:56.892Z,72.43
2022-10-01T16:07:34.871Z,72.06
2022-10-01T16:10:27.671Z,72.09
2022-10-01T16:12:58.909Z,72.19
2022-10-01T16:15:31.828Z,72.12
2022-10-01T16:18:03.565Z,72.04
2022-10-01T16:20:43.905Z,71.88
2022-10-01T16:23:44.054Z,72.26
2022-10-01T16:26:40.117Z,72.14
2022-10-01T16:29:24.060Z,72.33
2022-10-01T16:31:56.939Z,72.40
2022-10-01T16:34:30.190Z,72.69
2022-10-01T16:37:01.214Z,72.71
2022-10-01T16:39:32.920Z,72.85
2022-10-01T16:42:22.970Z,72.86
2022-10-01T16:44:54.880Z,72.79
2022-10-01T16:47:25.526Z,72.91
2022-10-01T16:49:56.243Z,73.02
2022-10-01T16:52:27.119Z,72.98
2022-10-01T16:54:57.725Z,72.97
2022-10-01T16:57:28.535Z,73.24
2022-10-01T16:59:59.252Z,73.09
2022-10-01T17:02:30.170Z,73.21
2022-10-01T17:05:01.037Z,73.21
2022-10-01T17:07:31.820Z,73.45
2022-10-01T17:10:02.580Z,73.70
2022-10-01T17:12:33.270Z,73.82
2022-10-01T17:15:05.802Z,73.75
2022-10-01T17:17:35.447Z,73.78
2022-10-01T17:20:06.965Z,73.81
2022-10-01T17:22:39.065Z,74.04
2022-10-01T17:25:11.663Z,73.79
2022-10-01T17:27:42.586Z,73.94
2022-10-01T17:30:14.992Z,73.95
2022-10-01T17:32:46.693Z,73.87
2022-10-01T17:35:18.353Z,73.89
2022-10-01T17:37:49.102Z,74.00
2022-10-01T17:40:20.527Z,73.99
2022-10-01T17:42:51.288Z,73.75
2022-10-01T17:45:22.174Z,73.97
2022-10-01T17:47:52.882Z,74.03
2022-10-01T17:50:24.370Z,74.29
2022-10-01T17:52:55.189Z,74.12
2022-10-01T17:55:25.883Z,74.11
2022-10-01T17:57:57.246Z,74.17
2022-10-01T18:00:27.978Z,74.16
2022-10-01T18:03:01.168Z,74.03
2022-10-01T18:05:32.035Z,73.95
2022-10-01T18:08:03.353Z,74.11
2022-10-01T18:10:34.119Z,74.11
2022-10-01T18:13:05.196Z,74.00
2022-10-01T18:15:36.102Z,74.08
2022-10-01T18:21:01.627Z,74.12
2022-10-01T18:23:32.420Z,74.10
2022-10-01T18:26:03.304Z,74.10
2022-10-01T18:28:34.963Z,74.08
2022-10-01T18:31:20.355Z,74.17
2022-10-01T18:33:53.696Z,74.06
2022-10-01T18:36:47.975Z,73.93
2022-10-01T18:39:24.975Z,73.99
2022-10-01T18:41:57.378Z,73.84
2022-10-01T18:44:28.379Z,73.75
2022-10-01T18:47:11.200Z,73.70
2022-10-01T18:50:15.206Z,73.67
2022-10-01T18:52:57.307Z,73.77
2022-10-01T18:56:12.078Z,73.66
2022-10-01T18:59:11.168Z,73.66
2022-10-01T19:01:54.168Z,73.77
2022-10-01T19:05:07.651Z,73.71
2022-10-01T19:07:58.667Z,73.63
2022-10-01T19:10:38.400Z,73.59
2022-10-01T19:13:19.129Z,73.51
2022-10-01T19:16:02.517Z,73.50
2022-10-01T19:18:51.892Z,73.42
2022-10-01T19:21:30.629Z,73.40
2022-10-01T19:24:35.515Z,73.35
2022-10-01T19:27:19.039Z,73.47
2022-10-01T19:30:01.337Z,73.38
2022-10-01T19:32:39.134Z,73.37
2022-10-01T19:35:19.104Z,73.30
2022-10-01T19:37:55.129Z,73.23
2022-10-01T19:40:36.606Z,73.54
2022-10-01T19:43:12.410Z,73.45
2022-10-01T19:45:49.454Z,73.40
2022-10-01T19:48:24.823Z,73.47
2022-10-01T19:51:03.447Z,73.45
2022-10-01T19:53:38.158Z,73.47
2022-10-01T19:56:12.150Z,73.63
2022-10-01T19:58:43.158Z,73.78
2022-10-01T20:01:20.786Z,73.68
2022-10-01T20:03:57.403Z,73.79
2022-10-01T20:06:34.331Z,73.81
2022-10-01T20:09:11.672Z,73.83
2022-10-01T20:11:49.988Z,73.98
2022-10-01T20:14:48.795Z,73.99
2022-10-01T20:17:25.410Z,73.98
2022-10-01T20:20:02.313Z,74.04
2022-10-01T20:22:40.903Z,74.08
2022-10-01T20:25:15.354Z,74.05
2022-10-01T20:27:58.890Z,73.89
2022-10-01T20:30:34.094Z,74.13
2022-10-01T20:33:17.198Z,74.00
2022-10-01T20:36:02.861Z,73.95
2022-10-01T20:38:40.839Z,73.94
2022-10-01T20:41:18.095Z,73.93
2022-10-01T20:43:52.436Z,73.91
2022-10-01T20:46:32.418Z,73.99
2022-10-01T20:49:06.559Z,73.95
2022-10-01T20:51:46.068Z,74.03
2022-10-01T20:54:23.119Z,73.85
2022-10-01T20:57:02.950Z,73.81
2022-10-01T20:59:38.693Z,73.78
2022-10-01T21:02:26.603Z,73.67
2022-10-01T21:05:04.310Z,73.73
2022-10-01T21:07:41.624Z,73.71
2022-10-01T21:10:26.323Z,73.52
2022-10-01T21:13:00.815Z,73.46
2022-10-01T21:15:47.068Z,73.56
2022-10-01T21:18:28.624Z,73.59
2022-10-01T21:21:11.521Z,73.62
2022-10-01T21:24:06.017Z,73.55
2022-10-01T21:26:48.528Z,73.59
2022-10-01T21:29:34.125Z,73.42
2022-10-01T21:32:16.538Z,73.47
2022-10-01T21:35:00.226Z,73.48
2022-10-01T21:37:35.163Z,73.52
2022-10-01T21:40:22.198Z,73.66
2022-10-01T21:43:02.889Z,73.42
2022-10-01T21:45:43.693Z,73.57
2022-10-01T21:48:34.006Z,73.57
2022-10-01T21:51:15.701Z,73.62
2022-10-01T21:54:28.550Z,73.69
2022-10-01T21:57:10.335Z,73.57
2022-10-01T21:59:57.256Z,73.43
2022-10-01T22:02:39.316Z,73.47
2022-10-01T22:05:23.916Z,73.34
2022-10-01T22:07:58.285Z,73.27
2022-10-01T22:10:35.318Z,73.32
2022-10-01T22:13:15.202Z,73.35
2022-10-01T22:15:48.355Z,73.40
2022-10-01T22:18:29.179Z,73.57
2022-10-01T22:21:01.956Z,73.47
2022-10-01T22:23:38.241Z,73.47
2022-10-01T22:26:16.194Z,73.53
2022-10-01T22:28:51.810Z,73.51
2022-10-01T22:31:27.925Z,73.33
2022-10-01T22:34:04.422Z,73.46
2022-10-01T22:36:42.586Z,73.47
2022-10-01T22:39:19.182Z,73.59
2022-10-01T22:41:54.020Z,73.68
2022-10-01T22:44:28.529Z,73.65
2022-10-01T22:47:35.723Z,73.74
2022-10-01T22:50:20.901Z,73.76
2022-10-01T22:53:07.865Z,73.72
2022-10-01T22:55:47.853Z,73.90
2022-10-01T22:58:35.534Z,74.05
2022-10-01T23:01:16.826Z,73.86
2022-10-01T23:03:57.256Z,73.87
2022-10-01T23:06:39.492Z,73.77
2022-10-01T23:09:16.865Z,73.67
2022-10-01T23:11:55.241Z,73.73
2022-10-01T23:14:46.883Z,73.72
2022-10-01T23:17:23.216Z,73.56
2022-10-01T23:20:05.178Z,73.83
2022-10-01T23:22:50.832Z,73.72
2022-10-01T23:25:33.240Z,73.68
2022-10-01T23:28:16.880Z,73.73
2022-10-01T23:30:59.467Z,73.68
2022-10-01T23:33:52.000Z,73.64
2022-10-01T23:36:33.772Z,73.80
2022-10-01T23:39:35.919Z,73.72
2022-10-01T23:42:15.861Z,73.76
2022-10-01T23:44:51.472Z,73.64
2022-10-01T23:47:27.292Z,73.55
2022-10-01T23:50:00.217Z,73.71
2022-10-01T23:52:39.831Z,73.77
2022-10-01T23:55:36.076Z,73.81
2022-10-01T23:58:12.221Z,73.74
